Time;durP1;ratioP1;P1;durP2;ratioP2;P2;SDS_P1;SDS_P2;PMS_P1;PMS_P2;Temp;Humidity;BMP_temperature;BMP_pressure;BME280_temperature;BME280_humidity;BME280_pressure;Samples;Min_cycle;Max_cycle;Signal;HPM_P1;HPM_P2
2024/03/16 00:00:13;;;;;;;26.63;3.58;;;17.10;81.90;;;;;;4188460;28;20549;-46
2024/03/16 00:02:54;;;;;;;;;;;17.10;81.80;;;;;;4160052;28;20133;-44
2024/03/16 00:05:36;;;;;;;19.70;3.88;;;17.10;81.80;;;;;;4175569;28;19930;-43
2024/03/16 00:08:18;;;;;;;20.70;3.80;;;17.10;82.30;;;;;;4173157;28;20083;-45
2024/03/16 00:10:59;;;;;;;;;;;17.10;82.30;;;;;;4160612;28;20063;-43
2024/03/16 00:13:40;;;;;;;19.55;4.57;;;17.00;82.20;;;;;;4171757;28;19932;-45
2024/03/16 00:16:21;;;;;;;24.38;4.55;;;17.10;82.50;;;;;;4160634;28;20175;-44
2024/03/16 00:19:03;;;;;;;14.85;3.85;;;17.00;82.30;;;;;;4156311;28;20101;-43
2024/03/16 00:21:44;;;;;;;;;;;17.00;82.30;;;;;;4177560;28;20047;-45
2024/03/16 00:24:25;;;;;;;19.15;4.13;;;17.00;82.30;;;;;;4173208;28;20397;-47
2024/03/16 00:27:07;;;;;;;22.15;3.95;;;17.00;82.70;;;;;;4174856;28;20129;-44
2024/03/16 00:29:48;;;;;;;22.52;4.30;;;17.00;82.70;;;;;;4165767;28;20063;-45
2024/03/16 00:32:29;;;;;;;20.77;4.55;;;17.00;82.80;;;;;;4167295;28;20058;-45
2024/03/16 00:35:10;;;;;;;23.05;4.35;;;17.00;82.70;;;;;;4169758;28;20072;-45
2024/03/16 00:37:52;;;;;;;15.98;4.13;;;16.90;82.60;;;;;;4175376;28;20534;-44
2024/03/16 00:40:33;;;;;;;23.13;5.18;;;16.90;82.70;;;;;;4186556;28;20766;-44
2024/03/16 00:43:18;;;;;;;19.00;4.78;;;17.00;82.80;;;;;;4187694;28;20635;-45
2024/03/16 00:45:59;;;;;;;22.25;4.88;;;16.90;82.80;;;;;;4175299;28;20043;-44
2024/03/16 00:48:41;;;;;;;18.70;4.10;;;16.90;82.80;;;;;;4158794;28;20051;-45
2024/03/16 00:51:22;;;;;;;18.90;5.05;;;17.00;82.90;;;;;;4170373;28;20052;-45
2024/03/16 00:54:03;;;;;;;16.88;4.45;;;16.90;83.70;;;;;;4170047;28;20047;-44
2024/03/16 00:56:46;;;;;;;15.82;4.55;;;16.90;82.80;;;;;;4170914;28;20206;-44
2024/03/16 00:59:28;;;;;;;17.17;5.10;;;16.90;82.80;;;;;;4162907;28;20095;-46
2024/03/16 01:02:09;;;;;;;19.45;5.15;;;16.90;83.00;;;;;;4186467;28;20048;-45
2024/03/16 01:04:51;;;;;;;20.17;5.30;;;16.90;83.10;;;;;;4170151;28;20482;-44
2024/03/16 01:07:32;;;;;;;19.10;4.97;;;16.90;83.30;;;;;;4144334;28;20056;-49
2024/03/16 01:10:13;;;;;;;26.70;7.70;;;16.90;83.20;;;;;;4148109;28;20189;-45
2024/03/16 01:12:54;;;;;;;26.55;5.82;;;16.90;83.30;;;;;;4170243;28;20114;-49
2024/03/16 01:15:35;;;;;;;18.90;5.75;;;16.90;83.40;;;;;;4157530;28;20110;-44
2024/03/16 01:18:16;;;;;;;23.80;6.07;;;16.80;83.40;;;;;;4156496;28;20499;-44
2024/03/16 01:20:57;;;;;;;23.90;6.88;;;16.80;83.40;;;;;;4164064;28;20048;-44
2024/03/16 01:23:38;;;;;;;24.90;6.18;;;16.80;83.50;;;;;;4183687;28;20147;-45
2024/03/16 01:26:20;;;;;;;23.30;6.68;;;16.80;83.60;;;;;;4171374;28;20056;-44
2024/03/16 01:29:03;;;;;;;22.00;6.80;;;16.80;84.50;;;;;;4184081;28;20545;-46
2024/03/16 01:31:44;;;;;;;22.73;5.85;;;16.80;83.60;;;;;;4174834;28;20067;-45
2024/03/16 01:34:25;;;;;;;21.80;6.07;;;16.80;83.60;;;;;;4169222;28;20179;-44
2024/03/16 01:37:06;;;;;;;29.95;6.95;;;16.80;83.70;;;;;;4171221;28;20264;-47
2024/03/16 01:39:49;;;;;;;18.83;5.63;;;16.80;83.70;;;;;;4164299;28;20051;-44
2024/03/16 01:42:30;;;;;;;18.75;5.40;;;16.80;83.60;;;;;;4175749;28;20048;-43
2024/03/16 01:45:12;;;;;;;13.98;5.85;;;16.80;83.60;;;;;;4160018;28;20064;-43
2024/03/16 01:47:54;;;;;;;19.23;5.05;;;16.80;83.70;;;;;;4174520;28;20137;-44
2024/03/16 01:50:35;;;;;;;17.30;4.55;;;16.80;83.60;;;;;;4158590;28;20060;-43
2024/03/16 01:53:16;;;;;;;18.58;4.53;;;16.80;83.70;;;;;;4158767;28;20051;-43
2024/03/16 01:55:57;;;;;;;16.63;4.18;;;16.80;83.70;;;;;;4160500;28;20078;-42
2024/03/16 01:58:43;;;;;;;16.38;4.40;;;16.80;83.70;;;;;;4175129;28;20105;-42
2024/03/16 02:01:25;;;;;;;16.85;4.18;;;16.70;83.70;;;;;;4175649;28;20368;-43
2024/03/16 02:04:06;;;;;;;13.80;3.72;;;16.70;83.70;;;;;;4185793;28;20400;-44
2024/03/16 02:06:49;;;;;;;12.32;3.67;;;16.70;83.70;;;;;;4156470;28;20113;-45
2024/03/16 02:09:30;;;;;;;12.52;3.47;;;16.70;83.70;;;;;;4153668;28;20752;-46
2024/03/16 02:12:11;;;;;;;;;;;16.70;83.70;;;;;;4159805;28;20056;-44
2024/03/16 02:14:53;;;;;;;5.18;1.52;;;16.70;83.70;;;;;;4174781;28;20036;-45
2024/03/16 02:17:34;;;;;;;5.15;1.55;;;16.70;83.90;;;;;;4175113;28;20052;-44
2024/03/16 02:20:15;;;;;;;3.65;1.65;;;16.70;83.60;;;;;;4172579;28;20055;-44
2024/03/16 02:22:56;;;;;;;;;;;16.70;83.40;;;;;;4172812;28;20056;-44
2024/03/16 02:25:37;;;;;;;4.53;1.37;;;16.70;83.30;;;;;;4161361;28;19928;-43
2024/03/16 02:28:18;;;;;;;2.78;0.77;;;16.60;83.60;;;;;;4155221;28;20047;-43
2024/03/16 02:30:59;;;;;;;0.85;0.73;;;16.60;84.30;;;;;;4166714;28;20107;-45
2024/03/16 02:33:40;;;;;;;1.15;0.75;;;16.60;83.40;;;;;;4157454;28;20118;-44
2024/03/16 02:36:23;;;;;;;1.45;0.80;;;16.60;83.50;;;;;;4168651;28;20058;-45
2024/03/16 02:39:04;;;;;;;2.20;0.82;;;16.60;83.40;;;;;;4175477;28;20075;-45
2024/03/16 02:41:45;;;;;;;2.50;0.95;;;16.60;83.20;;;;;;4166889;28;20063;-45
2024/03/16 02:44:26;;;;;;;3.08;0.65;;;16.50;82.90;;;;;;4169657;28;20051;-42
2024/03/16 02:47:10;;;;;;;1.67;0.70;;;16.50;82.90;;;;;;4158726;28;20060;-44
2024/03/16 02:49:51;;;;;;;4.05;0.85;;;16.50;83.00;;;;;;4169610;28;20056;-46
2024/03/16 02:52:32;;;;;;;2.90;1.27;;;16.50;83.20;;;;;;4169316;28;20086;-45
2024/03/16 02:55:13;;;;;;;2.08;0.80;;;16.50;82.90;;;;;;4169026;28;20139;-44
2024/03/16 02:57:54;;;;;;;1.55;0.73;;;16.50;82.60;;;;;;4170400;28;20052;-44
2024/03/16 03:00:35;;;;;;;2.75;0.57;;;16.50;82.70;;;;;;4167916;28;20059;-44
2024/03/16 03:03:16;;;;;;;3.95;0.98;;;16.50;82.90;;;;;;4155319;28;20115;-45
2024/03/16 03:05:57;;;;;;;;;;;16.50;83.10;;;;;;4158840;28;20059;-43
2024/03/16 03:08:39;;;;;;;1.67;0.70;;;16.50;83.00;;;;;;4168535;28;19927;-44
2024/03/16 03:11:20;;;;;;;2.10;0.70;;;16.50;83.30;;;;;;4161027;28;20056;-46
2024/03/16 03:14:01;;;;;;;3.35;0.60;;;16.40;83.10;;;;;;4167235;28;20067;-44
2024/03/16 03:16:43;;;;;;;2.63;0.77;;;16.40;82.80;;;;;;4173799;28;20182;-44
2024/03/16 03:19:24;;;;;;;0.50;0.50;;;16.40;83.30;;;;;;4158335;28;20376;-47
2024/03/16 03:22:05;;;;;;;;;;;16.40;82.80;;;;;;4158819;28;20056;-44
2024/03/16 03:24:46;;;;;;;5.07;0.90;;;16.40;82.90;;;;;;4167319;28;20058;-44
2024/03/16 03:27:27;;;;;;;4.35;0.68;;;16.40;83.30;;;;;;4183072;28;20059;-48
2024/03/16 03:30:10;;;;;;;2.25;0.93;;;16.40;83.00;;;;;;4187470;28;20097;-45
2024/03/16 03:32:51;;;;;;;2.20;1.13;;;16.40;82.60;;;;;;4173306;28;20059;-46
2024/03/16 03:35:32;;;;;;;2.15;1.02;;;16.30;82.50;;;;;;4184949;28;20056;-43
2024/03/16 03:38:13;;;;;;;3.58;0.90;;;16.30;82.20;;;;;;4162184;28;20102;-44
2024/03/16 03:40:55;;;;;;;4.22;0.68;;;16.30;82.30;;;;;;4175752;28;20059;-43
2024/03/16 03:43:37;;;;;;;0.93;0.70;;;16.30;82.50;;;;;;4168764;28;20407;-46
2024/03/16 03:46:29;;;;;;;2.55;0.82;;;16.30;82.10;;;;;;4163704;28;20114;-43
2024/03/16 03:49:14;;;;;;;2.78;0.90;;;16.30;82.10;;;;;;4164386;28;20047;-45
2024/03/16 03:51:57;;;;;;;2.72;1.33;;;16.30;81.90;;;;;;4169809;28;20052;-45
2024/03/16 03:54:38;;;;;;;4.93;0.98;;;16.30;81.80;;;;;;4177650;28;20058;-45
2024/03/16 03:57:20;;;;;;;4.28;1.20;;;16.30;81.50;;;;;;4177749;28;20075;-44
2024/03/16 04:00:01;;;;;;;4.70;1.98;;;16.30;81.10;;;;;;4177280;28;20047;-44
2024/03/16 04:02:51;;;;;;;5.70;1.58;;;16.30;80.90;;;;;;4177189;28;20052;-46
2024/03/16 04:05:32;;;;;;;7.45;1.95;;;16.20;80.30;;;;;;4160481;28;20187;-43
2024/03/16 04:08:13;;;;;;;8.15;1.58;;;16.20;80.80;;;;;;4170011;28;20055;-44
2024/03/16 04:10:54;;;;;;;5.88;1.60;;;16.20;80.10;;;;;;4160432;28;20044;-43
2024/03/16 04:13:35;;;;;;;9.48;1.80;;;16.20;79.90;;;;;;4159123;28;20175;-44
2024/03/16 04:16:16;;;;;;;9.23;1.98;;;16.20;80.20;;;;;;4171276;28;20056;-44
2024/03/16 04:18:57;;;;;;;6.40;1.63;;;16.10;80.30;;;;;;4171334;28;20126;-43
2024/03/16 04:21:38;;;;;;;4.30;1.88;;;16.10;80.10;;;;;;4159892;28;20084;-44
2024/03/16 04:24:19;;;;;;;7.43;1.92;;;16.10;79.70;;;;;;4171146;28;20098;-44
2024/03/16 04:27:01;;;;;;;8.10;2.08;;;16.10;80.00;;;;;;4162392;28;20060;-44
2024/03/16 04:29:42;;;;;;;9.52;2.10;;;16.10;79.50;;;;;;4148978;28;20052;-45
2024/03/16 04:32:26;;;;;;;12.18;2.70;;;16.10;79.00;;;;;;4160653;28;20388;-45
2024/03/16 04:35:07;;;;;;;8.98;2.10;;;16.10;78.60;;;;;;4185104;28;20104;-44
2024/03/16 04:37:48;;;;;;;10.90;2.65;;;16.10;79.00;;;;;;4164285;28;20102;-45
2024/03/16 04:40:29;;;;;;;12.18;2.30;;;16.00;79.40;;;;;;4186838;28;20055;-46
2024/03/16 04:43:10;;;;;;;5.70;1.73;;;16.00;79.70;;;;;;4175312;28;20716;-43
2024/03/16 04:45:52;;;;;;;5.25;1.58;;;16.00;80.30;;;;;;4186444;28;20048;-44
2024/03/16 04:48:33;;;;;;;;;;;16.00;80.50;;;;;;4186722;28;20119;-48
2024/03/16 04:51:14;;;;;;;10.93;1.83;;;16.10;80.70;;;;;;4171060;28;20383;-47
2024/03/16 04:53:56;;;;;;;9.93;2.60;;;16.00;81.30;;;;;;4170759;28;20482;-47
2024/03/16 04:56:37;;;;;;;;;;;16.00;80.10;;;;;;4149150;28;20052;-44
2024/03/16 04:59:18;;;;;;;11.38;2.10;;;16.00;78.80;;;;;;4170780;28;20398;-43
2024/03/16 05:02:00;;;;;;;10.68;2.40;;;15.90;79.60;;;;;;4171039;28;20182;-46
2024/03/16 05:04:41;;;;;;;8.30;2.47;;;16.00;77.90;;;;;;4176038;28;20082;-44
2024/03/16 05:07:22;;;;;;;7.68;2.03;;;15.90;78.60;;;;;;4160066;28;20052;-45
2024/03/16 05:10:04;;;;;;;11.77;1.98;;;15.90;79.90;;;;;;4164446;28;20487;-44
2024/03/16 05:12:46;;;;;;;12.98;3.08;;;15.90;79.60;;;;;;4159677;28;20060;-47
2024/03/16 05:15:27;;;;;;;12.60;2.05;;;15.90;79.60;;;;;;4159081;28;20051;-45
2024/03/16 05:18:08;;;;;;;9.48;1.80;;;15.90;78.80;;;;;;4158762;28;20113;-44
2024/03/16 05:20:51;;;;;;;8.73;1.90;;;15.90;78.80;;;;;;4170248;28;20063;-46
2024/03/16 05:23:32;;;;;;;10.07;1.38;;;15.90;78.50;;;;;;4168186;28;20056;-46
2024/03/16 05:26:13;;;;;;;7.03;1.65;;;15.90;79.00;;;;;;4181475;28;20059;-45
2024/03/16 05:28:55;;;;;;;8.18;1.20;;;15.90;78.70;;;;;;4158342;28;20130;-46
2024/03/16 05:31:37;;;;;;;5.55;1.30;;;15.90;78.90;;;;;;4162333;28;20048;-44
2024/03/16 05:34:18;;;;;;;8.55;2.38;;;15.90;78.40;;;;;;4185893;28;20113;-44
2024/03/16 05:37:00;;;;;;;2.45;1.70;;;15.80;78.50;;;;;;4158469;28;20107;-44
2024/03/16 05:39:41;;;;;;;5.05;1.00;;;15.90;78.40;;;;;;4148364;28;20052;-47
2024/03/16 05:42:23;;;;;;;5.35;1.95;;;15.90;78.20;;;;;;4159779;28;20495;-48
2024/03/16 05:45:05;;;;;;;4.47;0.82;;;15.90;76.30;;;;;;4164093;28;20051;-49
2024/03/16 05:47:46;;;;;;;6.55;1.92;;;15.80;75.90;;;;;;4157468;28;20388;-47
2024/03/16 05:50:27;;;;;;;6.00;1.38;;;15.80;76.00;;;;;;4155679;28;20048;-47
2024/03/16 05:53:08;;;;;;;2.47;1.10;;;15.80;76.50;;;;;;4143360;28;20079;-46
2024/03/16 05:55:50;;;;;;;5.95;1.52;;;15.80;76.70;;;;;;4154401;28;20071;-48
2024/03/16 05:58:31;;;;;;;8.00;1.30;;;15.80;76.90;;;;;;4156904;28;20047;-47
2024/03/16 06:01:12;;;;;;;;;;;15.80;76.50;;;;;;4168813;28;20051;-44
2024/03/16 06:03:53;;;;;;;4.07;1.02;;;15.80;76.80;;;;;;4165135;28;20283;-45
2024/03/16 06:06:34;;;;;;;4.88;0.98;;;15.80;78.60;;;;;;4169940;28;20141;-44
2024/03/16 06:09:16;;;;;;;8.55;1.83;;;15.70;78.20;;;;;;4173941;28;20055;-46
2024/03/16 06:11:57;;;;;;;6.15;1.58;;;15.70;77.80;;;;;;4173434;28;20125;-44
2024/03/16 06:14:38;;;;;;;4.35;1.13;;;15.70;78.20;;;;;;4169596;28;20051;-47
2024/03/16 06:17:19;;;;;;;5.93;1.67;;;15.70;78.10;;;;;;4158741;28;20105;-46
2024/03/16 06:20:03;;;;;;;5.82;1.30;;;15.70;78.80;;;;;;4157478;28;20056;-44
2024/03/16 06:22:44;;;;;;;6.47;1.20;;;15.70;79.90;;;;;;4158446;28;20510;-46
2024/03/16 06:25:29;;;;;;;8.23;2.20;;;15.70;79.20;;;;;;4174711;28;20047;-47
2024/03/16 06:28:09;;;;;;;8.10;2.17;;;15.70;79.40;;;;;;4155846;28;20086;-45
2024/03/16 06:30:56;;;;;;;8.27;1.17;;;15.80;79.30;;;;;;4169873;28;20130;-47
2024/03/16 06:33:44;;;;;;;6.70;1.55;;;15.80;79.00;;;;;;4168964;28;20075;-46
2024/03/16 06:36:26;;;;;;;5.28;1.20;;;15.80;78.90;;;;;;4173897;28;20489;-45
2024/03/16 06:39:10;;;;;;;5.57;1.40;;;15.80;78.30;;;;;;4162626;28;20051;-45
2024/03/16 06:41:52;;;;;;;1.70;0.85;;;15.80;77.90;;;;;;4158178;28;20377;-46
2024/03/16 06:44:33;;;;;;;11.35;2.05;;;15.70;77.50;;;;;;4167785;28;20051;-45
2024/03/16 06:47:14;;;;;;;;;;;15.80;77.50;;;;;;4143781;28;20064;-46
2024/03/16 06:49:55;;;;;;;5.63;0.90;;;15.70;77.30;;;;;;4177527;28;20366;-45
2024/03/16 06:52:36;;;;;;;10.73;1.20;;;15.70;78.50;;;;;;4172365;28;20146;-46
2024/03/16 06:55:19;;;;;;;3.20;1.02;;;15.70;77.40;;;;;;4162658;28;20106;-46
2024/03/16 06:58:00;;;;;;;3.13;0.93;;;15.70;77.30;;;;;;4175022;28;20047;-48
2024/03/16 07:00:41;;;;;;;3.45;1.00;;;15.70;76.90;;;;;;4184575;28;20075;-47
2024/03/16 07:03:23;;;;;;;1.63;0.70;;;15.70;77.60;;;;;;4176661;28;20064;-46
2024/03/16 07:06:06;;;;;;;4.45;1.20;;;15.70;77.10;;;;;;4176952;28;20055;-45
2024/03/16 07:08:47;;;;;;;4.57;1.20;;;15.60;77.50;;;;;;4160563;28;20088;-45
2024/03/16 07:11:28;;;;;;;3.65;0.85;;;15.60;75.70;;;;;;4171735;28;20506;-46
2024/03/16 07:14:09;;;;;;;6.35;2.10;;;15.60;75.60;;;;;;4159185;28;20102;-52
2024/03/16 07:16:50;;;;;;;4.63;0.95;;;15.60;76.50;;;;;;4157908;28;20068;-47
2024/03/16 07:19:31;;;;;;;6.13;0.82;;;15.60;75.70;;;;;;4156854;28;20056;-49
2024/03/16 07:22:12;;;;;;;3.08;1.02;;;15.60;77.40;;;;;;4162083;28;20056;-46
2024/03/16 07:24:54;;;;;;;3.25;0.90;;;15.60;77.60;;;;;;4147584;28;20056;-47
2024/03/16 07:27:35;;;;;;;;;;;15.60;77.60;;;;;;4148075;28;20510;-48
2024/03/16 07:30:18;;;;;;;4.80;1.02;;;15.50;77.10;;;;;;4172144;28;19931;-46
2024/03/16 07:33:00;;;;;;;5.65;1.08;;;15.50;78.50;;;;;;4170813;28;20178;-46
2024/03/16 07:35:42;;;;;;;4.80;1.25;;;15.50;78.30;;;;;;4177406;28;20182;-47
2024/03/16 07:38:23;;;;;;;4.70;1.00;;;15.50;77.90;;;;;;4177230;28;20042;-46
2024/03/16 07:41:05;;;;;;;3.95;0.80;;;15.50;77.30;;;;;;4175658;28;20060;-44
2024/03/16 07:43:46;;;;;;;4.78;0.98;;;15.50;77.40;;;;;;4174949;28;20079;-43
2024/03/16 07:46:27;;;;;;;4.78;1.23;;;15.50;77.50;;;;;;4174096;28;20059;-43
2024/03/16 07:49:08;;;;;;;6.82;0.95;;;15.50;77.20;;;;;;4170676;28;20051;-43
2024/03/16 07:51:50;;;;;;;4.65;1.10;;;15.50;77.20;;;;;;4171723;28;20190;-43
2024/03/16 07:54:31;;;;;;;4.85;2.03;;;15.50;77.20;;;;;;4169164;28;20055;-45
2024/03/16 07:57:12;;;;;;;6.57;1.10;;;15.40;76.80;;;;;;4150916;28;20483;-43
2024/03/16 07:59:53;;;;;;;2.65;1.00;;;15.50;76.70;;;;;;4186367;28;20093;-44
2024/03/16 08:02:34;;;;;;;4.28;1.42;;;15.40;76.50;;;;;;4170362;28;20055;-43
2024/03/16 08:05:16;;;;;;;5.57;1.13;;;15.40;76.90;;;;;;4176714;28;20052;-50
2024/03/16 08:07:57;;;;;;;3.85;0.75;;;15.40;77.10;;;;;;4161004;28;20098;-44
2024/03/16 08:10:38;;;;;;;3.03;0.73;;;15.40;77.30;;;;;;4160255;28;20518;-45
2024/03/16 08:13:19;;;;;;;4.32;1.00;;;15.40;76.70;;;;;;4163365;28;20055;-44
2024/03/16 08:16:00;;;;;;;4.80;1.02;;;15.40;76.20;;;;;;4158387;28;20059;-43
2024/03/16 08:18:42;;;;;;;4.60;1.13;;;15.40;75.80;;;;;;4176115;28;21645;-46
2024/03/16 08:21:23;;;;;;;4.85;1.00;;;15.40;75.80;;;;;;4185699;28;20056;-44
2024/03/16 08:24:04;;;;;;;5.72;1.10;;;15.40;75.30;;;;;;4163454;28;20195;-47
2024/03/16 08:26:45;;;;;;;6.70;0.98;;;15.40;75.60;;;;;;4169878;28;20410;-46
2024/03/16 08:29:26;;;;;;;6.88;1.65;;;15.30;75.80;;;;;;4161940;28;20164;-46
2024/03/16 08:32:09;;;;;;;6.95;2.10;;;15.40;75.30;;;;;;4169757;28;20074;-48
2024/03/16 08:34:50;;;;;;;5.57;1.42;;;15.40;74.90;;;;;;4175636;28;20495;-46
2024/03/16 08:37:31;;;;;;;4.70;0.98;;;15.30;74.70;;;;;;4176394;28;20075;-47
2024/03/16 08:40:12;;;;;;;3.78;1.15;;;15.40;75.00;;;;;;4170456;28;20052;-46
2024/03/16 08:42:54;;;;;;;5.55;1.10;;;15.30;75.10;;;;;;4174599;28;20052;-47
2024/03/16 08:45:35;;;;;;;2.08;0.80;;;15.30;75.10;;;;;;4187796;28;20097;-46
2024/03/16 08:48:16;;;;;;;9.27;1.90;;;15.30;74.90;;;;;;4161454;28;20409;-46
2024/03/16 08:50:59;;;;;;;4.97;1.15;;;15.30;73.40;;;;;;4153559;28;20056;-47
2024/03/16 08:53:39;;;;;;;5.93;1.45;;;15.30;72.90;;;;;;4133823;28;20055;-48
2024/03/16 08:56:20;;;;;;;4.22;0.93;;;15.30;71.70;;;;;;4158837;28;20052;-47
2024/03/16 08:59:03;;;;;;;5.07;1.50;;;15.30;70.70;;;;;;4170641;28;20193;-50
2024/03/16 09:01:44;;;;;;;6.97;1.20;;;15.30;71.10;;;;;;4146988;28;20061;-46
2024/03/16 09:04:25;;;;;;;9.05;3.03;;;15.20;71.10;;;;;;4166944;28;20175;-47
2024/03/16 09:07:06;;;;;;;6.63;1.70;;;15.20;71.80;;;;;;4172678;28;20063;-47
2024/03/16 09:09:47;;;;;;;4.72;1.67;;;15.20;72.80;;;;;;4161361;28;20064;-50
2024/03/16 09:12:28;;;;;;;9.38;1.77;;;15.20;73.10;;;;;;4158833;28;20051;-48
2024/03/16 09:15:09;;;;;;;9.05;1.52;;;15.20;73.20;;;;;;4158425;28;20133;-47
2024/03/16 09:17:50;;;;;;;8.40;1.35;;;15.20;73.50;;;;;;4149733;28;20060;-47
2024/03/16 09:20:31;;;;;;;7.78;1.85;;;15.20;73.70;;;;;;4158418;28;20051;-47
2024/03/16 09:23:13;;;;;;;7.70;1.58;;;15.10;73.70;;;;;;4152993;28;20052;-47
2024/03/16 09:25:56;;;;;;;9.35;2.03;;;15.20;74.00;;;;;;4161050;28;20051;-47
2024/03/16 09:28:37;;;;;;;8.02;1.38;;;15.20;73.90;;;;;;4162312;28;20051;-47
2024/03/16 09:31:19;;;;;;;3.95;0.85;;;15.20;74.00;;;;;;4170527;28;20064;-47
2024/03/16 09:34:01;;;;;;;6.95;1.50;;;15.20;73.90;;;;;;4153684;28;20056;-49
2024/03/16 09:36:42;;;;;;;5.95;1.20;;;15.20;73.90;;;;;;4145775;28;20429;-44
2024/03/16 09:39:26;;;;;;;1.50;0.70;;;15.20;74.00;;;;;;4168299;28;20059;-43
2024/03/16 09:42:09;;;;;;;6.28;0.90;;;15.30;73.70;;;;;;4174778;28;20522;-43
2024/03/16 09:44:50;;;;;;;1.98;0.82;;;15.60;72.20;;;;;;4146943;28;20048;-45
2024/03/16 09:47:31;;;;;;;1.95;0.77;;;16.00;69.90;;;;;;4151788;28;20383;-45
2024/03/16 09:50:12;;;;;;;5.50;1.15;;;16.50;67.20;;;;;;4143772;28;20052;-44
2024/03/16 09:52:52;;;;;;;;;;;17.00;65.80;;;;;;4148765;28;20052;-42
2024/03/16 09:55:33;;;;;;;2.83;0.80;;;17.60;64.00;;;;;;4156561;28;20029;-45
2024/03/16 09:58:13;;;;;;;4.00;0.80;;;18.20;62.10;;;;;;4143198;28;20055;-44
2024/03/16 10:00:53;;;;;;;3.53;1.10;;;18.60;60.30;;;;;;4163733;28;20059;-44
2024/03/16 10:03:33;;;;;;;2.53;1.02;;;19.10;59.30;;;;;;4146987;28;20095;-48
2024/03/16 10:06:18;;;;;;;2.85;0.73;;;19.40;58.10;;;;;;4157339;28;20059;-44
2024/03/16 10:09:10;;;;;;;2.85;0.55;;;19.80;56.70;;;;;;4154773;28;20070;-43
2024/03/16 10:11:50;;;;;;;6.43;1.50;;;19.90;56.10;;;;;;4147071;28;20250;-45
2024/03/16 10:14:30;;;;;;;2.42;0.80;;;20.00;55.60;;;;;;4172606;28;20446;-44
2024/03/16 10:17:11;;;;;;;3.05;0.90;;;19.90;55.30;;;;;;4174232;28;20079;-45
2024/03/16 10:19:52;;;;;;;5.05;0.90;;;19.90;55.50;;;;;;4173040;28;20122;-45
2024/03/16 10:22:32;;;;;;;3.90;1.10;;;19.80;56.10;;;;;;4171373;28;20052;-44
2024/03/16 10:25:12;;;;;;;5.82;1.33;;;19.80;56.20;;;;;;4172063;28;20051;-44
2024/03/16 10:27:54;;;;;;;5.00;1.50;;;19.80;56.00;;;;;;4173548;28;20097;-47
2024/03/16 10:30:35;;;;;;;3.05;1.40;;;19.80;56.70;;;;;;4161407;28;20071;-44
2024/03/16 10:33:18;;;;;;;5.97;1.35;;;19.80;56.20;;;;;;4187304;28;20128;-43
2024/03/16 10:35:59;;;;;;;5.13;1.00;;;19.80;56.30;;;;;;4166659;28;20051;-49
2024/03/16 10:38:41;;;;;;;4.68;1.02;;;19.80;56.10;;;;;;4173378;28;20059;-47
2024/03/16 10:41:22;;;;;;;5.65;1.38;;;19.70;55.30;;;;;;4173784;28;20052;-45
2024/03/16 10:44:04;;;;;;;5.57;1.30;;;19.70;55.70;;;;;;4184305;28;20513;-42
2024/03/16 10:46:44;;;;;;;2.38;0.88;;;19.70;55.40;;;;;;4160980;28;20064;-47
2024/03/16 10:49:25;;;;;;;6.20;1.95;;;19.70;55.10;;;;;;4153764;28;20137;-46
2024/03/16 10:52:07;;;;;;;;;;;19.70;55.90;;;;;;4177970;28;20502;-48
2024/03/16 10:54:47;;;;;;;2.15;1.00;;;19.70;56.80;;;;;;4175385;28;19974;-46
2024/03/16 10:57:27;;;;;;;4.28;1.02;;;19.70;57.30;;;;;;4162484;28;20102;-43
2024/03/16 11:00:12;;;;;;;4.83;1.53;;;19.60;56.20;;;;;;4163959;28;20148;-43
2024/03/16 11:02:59;;;;;;;2.47;1.10;;;19.60;57.10;;;;;;4163976;28;20305;-42
2024/03/16 11:05:45;;;;;;;1.40;1.00;;;19.50;57.80;;;;;;4165039;28;20110;-42
2024/03/16 11:08:37;;;;;;;5.53;1.50;;;19.50;59.60;;;;;;4176206;28;20059;-42
2024/03/16 11:11:18;;;;;;;2.58;1.17;;;19.50;61.10;;;;;;4169838;28;20050;-43
2024/03/16 11:14:07;;;;;;;4.82;1.10;;;19.50;59.50;;;;;;4172496;28;20114;-47
2024/03/16 11:16:47;;;;;;;3.80;1.30;;;19.60;60.10;;;;;;4168500;28;20072;-45
2024/03/16 11:19:28;;;;;;;4.80;1.30;;;19.70;60.10;;;;;;4170645;28;20083;-45
2024/03/16 11:22:08;;;;;;;5.28;1.10;;;19.80;60.30;;;;;;4149988;28;20055;-46
2024/03/16 11:24:49;;;;;;;5.82;1.40;;;19.80;59.50;;;;;;4161550;28;20063;-48
2024/03/16 11:27:29;;;;;;;8.50;1.65;;;19.90;59.10;;;;;;4144646;28;20530;-50
2024/03/16 11:30:13;;;;;;;3.70;1.27;;;19.90;59.60;;;;;;4163285;28;20147;-47
2024/03/16 11:32:56;;;;;;;6.20;1.70;;;19.80;60.80;;;;;;4180093;28;20071;-43
2024/03/16 11:35:36;;;;;;;5.47;1.00;;;19.80;61.20;;;;;;4148677;28;20087;-43
2024/03/16 11:38:15;;;;;;;6.20;2.10;;;19.70;61.80;;;;;;4178932;28;20066;-48
2024/03/16 11:40:55;;;;;;;6.07;1.45;;;19.60;59.40;;;;;;4166777;28;20156;-46
2024/03/16 11:43:35;;;;;;;2.72;1.20;;;19.50;59.60;;;;;;4165568;28;20047;-46
2024/03/16 11:46:17;;;;;;;9.73;1.60;;;19.40;60.10;;;;;;4149384;28;20076;-47
2024/03/16 11:48:57;;;;;;;3.90;1.38;;;19.30;61.00;;;;;;4176254;28;20055;-46
2024/03/16 11:51:38;;;;;;;5.10;1.65;;;19.30;61.10;;;;;;4170509;28;20051;-47
2024/03/16 11:54:17;;;;;;;4.45;1.33;;;19.30;62.70;;;;;;4176579;28;20047;-46
2024/03/16 11:56:57;;;;;;;4.63;1.20;;;19.40;61.60;;;;;;4153961;28;20135;-46
2024/03/16 11:59:38;;;;;;;5.47;1.50;;;19.50;61.20;;;;;;4147726;28;20056;-46
2024/03/16 12:02:18;;;;;;;7.63;1.38;;;19.50;61.50;;;;;;4140979;28;20113;-46
2024/03/16 12:04:57;;;;;;;3.70;1.23;;;19.50;60.30;;;;;;4159760;28;20113;-47
2024/03/16 12:07:37;;;;;;;6.75;1.40;;;19.50;58.00;;;;;;4149081;28;20530;-46
2024/03/16 12:10:19;;;;;;;3.53;1.60;;;19.50;60.60;;;;;;4159756;28;20056;-46
2024/03/16 12:13:00;;;;;;;5.40;1.40;;;19.50;59.20;;;;;;4165428;28;20127;-47
2024/03/16 12:15:39;;;;;;;4.90;1.10;;;19.60;59.80;;;;;;4137979;28;20067;-46
2024/03/16 12:18:21;;;;;;;5.97;1.92;;;19.60;59.60;;;;;;4186817;28;20097;-46
2024/03/16 12:21:03;;;;;;;7.95;1.60;;;19.60;60.30;;;;;;4165258;28;20051;-46
2024/03/16 12:23:42;;;;;;;4.80;1.75;;;19.60;58.50;;;;;;4176040;28;20055;-47
2024/03/16 12:26:25;;;;;;;4.28;1.30;;;19.60;59.40;;;;;;4176459;28;20113;-46
2024/03/16 12:29:08;;;;;;;4.68;1.10;;;19.60;58.80;;;;;;4153517;28;20136;-42
2024/03/16 12:31:47;;;;;;;7.57;1.65;;;19.60;60.20;;;;;;4152924;28;20195;-43
2024/03/16 12:34:28;;;;;;;6.30;1.40;;;19.60;61.10;;;;;;4162764;28;20117;-43
2024/03/16 12:37:07;;;;;;;2.58;1.38;;;19.60;60.40;;;;;;4164629;28;20047;-46
2024/03/16 12:39:48;;;;;;;5.43;1.10;;;19.70;60.80;;;;;;4164171;28;20131;-46
2024/03/16 12:42:27;;;;;;;6.27;1.60;;;19.70;60.90;;;;;;4151734;28;20063;-44
2024/03/16 12:45:08;;;;;;;5.07;1.83;;;19.80;61.20;;;;;;4152685;28;20302;-47
2024/03/16 12:47:47;;;;;;;7.30;1.63;;;19.90;61.30;;;;;;4148279;28;20099;-47
2024/03/16 12:50:27;;;;;;;5.70;1.50;;;20.00;59.70;;;;;;4138816;28;20399;-45
2024/03/16 12:53:07;;;;;;;2.83;1.00;;;20.00;59.80;;;;;;4147034;28;20087;-50
2024/03/16 12:55:48;;;;;;;6.88;1.73;;;20.00;60.00;;;;;;4154258;28;20056;-46
2024/03/16 12:58:27;;;;;;;5.95;1.30;;;20.00;60.60;;;;;;4163444;28;20056;-46
2024/03/16 13:01:07;;;;;;;6.35;1.58;;;20.00;60.30;;;;;;4163385;28;20060;-44
2024/03/16 13:03:49;;;;;;;8.80;1.38;;;20.00;58.90;;;;;;4155017;28;20513;-45
2024/03/16 13:06:29;;;;;;;6.20;1.35;;;20.10;59.80;;;;;;4148694;28;20094;-49
2024/03/16 13:09:12;;;;;;;7.97;1.70;;;20.20;61.50;;;;;;4152122;28;20198;-44
2024/03/16 13:11:53;;;;;;;4.72;1.73;;;20.20;62.10;;;;;;4163448;28;20126;-44
2024/03/16 13:14:32;;;;;;;6.13;2.22;;;20.30;60.10;;;;;;4153860;28;20529;-46
2024/03/16 13:17:13;;;;;;;6.28;1.33;;;20.30;59.30;;;;;;4147889;28;20055;-44
2024/03/16 13:19:52;;;;;;;4.38;1.77;;;20.30;57.10;;;;;;4160357;28;20098;-47
2024/03/16 13:22:32;;;;;;;4.72;1.30;;;20.30;60.70;;;;;;4157842;28;20461;-44
2024/03/16 13:25:12;;;;;;;6.25;1.63;;;20.20;62.00;;;;;;4168977;28;20146;-46
2024/03/16 13:27:52;;;;;;;6.95;1.50;;;20.20;61.50;;;;;;4163476;28;20055;-44
2024/03/16 13:30:31;;;;;;;5.22;1.25;;;20.20;62.10;;;;;;4160742;28;20109;-43
2024/03/16 13:33:11;;;;;;;3.33;1.55;;;20.30;60.80;;;;;;4162870;28;20093;-46
2024/03/16 13:35:53;;;;;;;5.95;1.80;;;20.30;61.40;;;;;;4163099;28;20071;-45
2024/03/16 13:38:34;;;;;;;4.03;1.70;;;20.30;62.40;;;;;;4158315;28;20084;-48
2024/03/16 13:41:14;;;;;;;5.25;1.80;;;20.40;63.10;;;;;;4172312;28;20050;-48
2024/03/16 13:43:54;;;;;;;3.53;1.00;;;20.40;57.60;;;;;;4152375;28;20060;-42
2024/03/16 13:46:34;;;;;;;6.25;1.20;;;20.50;62.10;;;;;;4162790;28;20387;-43
2024/03/16 13:49:15;;;;;;;6.57;1.38;;;20.50;63.70;;;;;;4143660;28;20093;-45
2024/03/16 13:51:56;;;;;;;2.42;1.50;;;20.60;64.40;;;;;;4163356;28;20070;-46
2024/03/16 13:54:35;;;;;;;6.60;2.03;;;20.60;63.50;;;;;;4151201;28;20059;-42
2024/03/16 13:57:15;;;;;;;8.50;1.73;;;20.60;63.10;;;;;;4157970;28;20052;-43
2024/03/16 13:59:54;;;;;;;5.85;1.73;;;20.60;63.20;;;;;;4136585;28;20051;-44